Pinson, TN (38366)

6:19 PM CST on November 27, 2014 (GMT -0600)
McKellar-Sipes Regional | Change Station
CLOSE
Current Station
Airport
Location: Jackson,
Elevation: 433 ft
Nearby Weather Stations

Elev 433 ft 35.59 °N, 88.92 °W | Updated 26 minutes ago

Overcast
Overcast
34 °F
Feels Like 30 °F
N
5
Wind Variable Wind from ENE

Today
High -- | Low -- °F
--% Chance of Precip.
Yesterday
High -- | Low -- °F
Precip. -- in
6:42 AM 4:42 PM
Waxing Crescent, 34% visible
Pressure 30.49 in
Visibility 10.0 miles
Clouds Few 3200 ft
Windchill 30 °F
Dew Point 26 °F
Humidity 73%
Rainfall 0.00 in
Snow Depth Not available.
UV 0 out of 12
Pollen .30 out of 12
Air Quality Not available.
Flu Activity Not available.
METAR KMKL 272353Z 06004KT 10SM FEW032 01/M03 A3048 RMK AO2 SLP325 T00111033 10044 20011 50006

More Conditions Fewer Conditions

Pressure 30.49 in
Visibility 10.0 miles
Clouds Few 3200 ft
Windchill 30 °F
Dew Point 26 °F
Humidity 73%
Rainfall 0.00 in
Snow Depth Not available.
UV 0 out of 12
Pollen .30 out of 12
Air Quality Not available.
Flu Activity Not available.
METAR KMKL 272353Z 06004KT 10SM FEW032 01/M03 A3048 RMK AO2 SLP325 T00111033 10044 20011 50006

More Conditions Fewer Conditions

10-Day Weather Forecast

Almanac

Astronomy

Nov. 27, 2014 Rise Set
Actual Time
Civil Twilight
Nautical Twilight
Astronomical Twilight
Moon
Length of Visible Light
Length of Day
Tomorrow will be .
, % of the Moon is Illuminated

Today's Extremes

State Highs State Lows

Community

WunderPhotos

Upload Photos

1,774,141 photos uploaded!

WunderBlogs® & News

Nearby

Air Quality

  Air Quality AQ Index Pollutant
Not available.

Snow Depth

Station Depth Elevation

Earthquake Activity

City Distance Mag. Time & Date
Minimum magnitude displayed is 2.5.

Coastal Water Temperatures

Place Temperature

Nearby Weather Stations